sensor_id;sensor_type;location;lat;lon;timestamp;P1;durP1;ratioP1;P2;durP2;ratioP2
22774;SDS011;11554;51.106;3.684;2023-08-17T00:00:00;7.70;;;5.60;;
22774;SDS011;11554;51.106;3.684;2023-08-17T00:05:00;8.30;;;5.60;;
22774;SDS011;11554;51.106;3.684;2023-08-17T00:10:00;8.30;;;5.60;;
22774;SDS011;11554;51.106;3.684;2023-08-17T00:15:00;7.00;;;5.70;;
22774;SDS011;11554;51.106;3.684;2023-08-17T00:20:00;7.00;;;5.70;;
22774;SDS011;11554;51.106;3.684;2023-08-17T00:25:00;7.60;;;5.80;;
22774;SDS011;11554;51.106;3.684;2023-08-17T00:30:00;7.60;;;5.80;;
22774;SDS011;11554;51.106;3.684;2023-08-17T00:35:00;7.30;;;5.80;;
22774;SDS011;11554;51.106;3.684;2023-08-17T00:40:00;7.30;;;5.80;;
22774;SDS011;11554;51.106;3.684;2023-08-17T00:45:00;8.60;;;5.30;;
22774;SDS011;11554;51.106;3.684;2023-08-17T00:50:00;8.60;;;5.30;;
22774;SDS011;11554;51.106;3.684;2023-08-17T00:55:01;7.30;;;5.70;;
22774;SDS011;11554;51.106;3.684;2023-08-17T01:00:00;7.30;;;5.70;;
22774;SDS011;11554;51.106;3.684;2023-08-17T01:05:00;6.60;;;4.70;;
22774;SDS011;11554;51.106;3.684;2023-08-17T01:10:02;6.60;;;4.70;;
22774;SDS011;11554;51.106;3.684;2023-08-17T01:15:04;8.20;;;3.80;;
22774;SDS011;11554;51.106;3.684;2023-08-17T01:20:01;8.20;;;3.80;;
22774;SDS011;11554;51.106;3.684;2023-08-17T01:25:00;6.90;;;3.70;;
22774;SDS011;11554;51.106;3.684;2023-08-17T01:30:00;6.90;;;3.70;;
22774;SDS011;11554;51.106;3.684;2023-08-17T01:35:10;6.60;;;3.40;;
22774;SDS011;11554;51.106;3.684;2023-08-17T01:40:00;6.60;;;3.40;;
22774;SDS011;11554;51.106;3.684;2023-08-17T01:45:01;7.20;;;3.50;;
22774;SDS011;11554;51.106;3.684;2023-08-17T01:50:00;7.20;;;3.50;;
22774;SDS011;11554;51.106;3.684;2023-08-17T01:55:00;5.30;;;3.20;;
22774;SDS011;11554;51.106;3.684;2023-08-17T02:00:00;5.30;;;3.20;;
22774;SDS011;11554;51.106;3.684;2023-08-17T02:05:00;8.60;;;3.30;;
22774;SDS011;11554;51.106;3.684;2023-08-17T02:10:00;8.60;;;3.30;;
22774;SDS011;11554;51.106;3.684;2023-08-17T02:15:00;6.80;;;3.00;;
22774;SDS011;11554;51.106;3.684;2023-08-17T02:20:00;6.80;;;3.00;;
22774;SDS011;11554;51.106;3.684;2023-08-17T02:25:00;6.30;;;3.20;;
22774;SDS011;11554;51.106;3.684;2023-08-17T02:30:00;6.30;;;3.20;;
22774;SDS011;11554;51.106;3.684;2023-08-17T02:35:00;5.90;;;3.00;;
22774;SDS011;11554;51.106;3.684;2023-08-17T02:40:00;5.90;;;3.00;;
22774;SDS011;11554;51.106;3.684;2023-08-17T02:45:00;7.30;;;2.80;;
22774;SDS011;11554;51.106;3.684;2023-08-17T02:50:00;7.30;;;2.80;;
22774;SDS011;11554;51.106;3.684;2023-08-17T02:55:00;8.00;;;3.00;;
22774;SDS011;11554;51.106;3.684;2023-08-17T03:00:00;8.00;;;3.00;;
22774;SDS011;11554;51.106;3.684;2023-08-17T03:05:00;6.10;;;2.90;;
22774;SDS011;11554;51.106;3.684;2023-08-17T03:10:00;6.10;;;2.90;;
22774;SDS011;11554;51.106;3.684;2023-08-17T03:15:00;7.00;;;3.50;;
22774;SDS011;11554;51.106;3.684;2023-08-17T03:20:00;7.00;;;3.50;;
22774;SDS011;11554;51.106;3.684;2023-08-17T03:25:01;6.00;;;3.20;;
22774;SDS011;11554;51.106;3.684;2023-08-17T03:30:00;6.00;;;3.20;;
22774;SDS011;11554;51.106;3.684;2023-08-17T03:35:00;6.20;;;2.90;;
22774;SDS011;11554;51.106;3.684;2023-08-17T03:40:00;6.20;;;2.90;;
22774;SDS011;11554;51.106;3.684;2023-08-17T03:45:01;7.80;;;3.20;;
22774;SDS011;11554;51.106;3.684;2023-08-17T03:50:01;7.80;;;3.20;;
22774;SDS011;11554;51.106;3.684;2023-08-17T03:55:00;5.80;;;2.90;;
22774;SDS011;11554;51.106;3.684;2023-08-17T04:00:00;5.80;;;2.90;;
22774;SDS011;11554;51.106;3.684;2023-08-17T04:05:00;7.80;;;3.30;;
22774;SDS011;11554;51.106;3.684;2023-08-17T04:10:00;7.80;;;3.30;;
22774;SDS011;11554;51.106;3.684;2023-08-17T04:15:00;5.40;;;3.00;;
22774;SDS011;11554;51.106;3.684;2023-08-17T04:20:00;5.40;;;3.00;;
22774;SDS011;11554;51.106;3.684;2023-08-17T04:25:00;5.90;;;3.30;;
22774;SDS011;11554;51.106;3.684;2023-08-17T04:30:01;5.90;;;3.30;;
22774;SDS011;11554;51.106;3.684;2023-08-17T04:35:00;6.70;;;3.40;;
22774;SDS011;11554;51.106;3.684;2023-08-17T04:40:00;6.70;;;3.40;;
22774;SDS011;11554;51.106;3.684;2023-08-17T04:45:00;8.50;;;3.40;;
22774;SDS011;11554;51.106;3.684;2023-08-17T04:50:00;8.50;;;3.40;;
22774;SDS011;11554;51.106;3.684;2023-08-17T04:55:00;6.90;;;3.60;;
22774;SDS011;11554;51.106;3.684;2023-08-17T05:00:00;6.90;;;3.60;;
22774;SDS011;11554;51.106;3.684;2023-08-17T05:05:03;6.50;;;3.30;;
22774;SDS011;11554;51.106;3.684;2023-08-17T05:10:01;6.50;;;3.30;;
22774;SDS011;11554;51.106;3.684;2023-08-17T05:15:00;9.60;;;3.80;;
22774;SDS011;11554;51.106;3.684;2023-08-17T05:20:00;9.60;;;3.80;;
22774;SDS011;11554;51.106;3.684;2023-08-17T05:25:00;8.40;;;3.40;;
22774;SDS011;11554;51.106;3.684;2023-08-17T05:30:00;8.40;;;3.40;;
22774;SDS011;11554;51.106;3.684;2023-08-17T05:35:00;5.00;;;2.90;;
22774;SDS011;11554;51.106;3.684;2023-08-17T05:50:00;5.90;;;3.10;;
22774;SDS011;11554;51.106;3.684;2023-08-17T05:55:00;7.00;;;3.40;;
22774;SDS011;11554;51.106;3.684;2023-08-17T06:00:00;7.00;;;3.40;;
22774;SDS011;11554;51.106;3.684;2023-08-17T06:05:00;8.90;;;3.20;;
22774;SDS011;11554;51.106;3.684;2023-08-17T06:10:03;8.90;;;3.20;;
22774;SDS011;11554;51.106;3.684;2023-08-17T06:15:01;5.70;;;3.40;;
22774;SDS011;11554;51.106;3.684;2023-08-17T06:20:00;unavailable;;;unavailable;;
22774;SDS011;11554;51.106;3.684;2023-08-17T06:25:00;8.10;;;3.00;;
22774;SDS011;11554;51.106;3.684;2023-08-17T06:30:00;8.10;;;3.00;;
22774;SDS011;11554;51.106;3.684;2023-08-17T06:35:00;8.10;;;3.60;;
22774;SDS011;11554;51.106;3.684;2023-08-17T06:40:00;8.10;;;3.60;;
22774;SDS011;11554;51.106;3.684;2023-08-17T06:45:00;5.00;;;2.20;;
22774;SDS011;11554;51.106;3.684;2023-08-17T06:50:00;5.00;;;2.20;;
22774;SDS011;11554;51.106;3.684;2023-08-17T06:55:00;6.40;;;2.30;;
22774;SDS011;11554;51.106;3.684;2023-08-17T07:00:00;6.40;;;2.30;;
22774;SDS011;11554;51.106;3.684;2023-08-17T07:05:00;4.60;;;2.20;;
22774;SDS011;11554;51.106;3.684;2023-08-17T07:10:00;4.60;;;2.20;;
22774;SDS011;11554;51.106;3.684;2023-08-17T07:15:00;5.50;;;2.20;;
22774;SDS011;11554;51.106;3.684;2023-08-17T07:20:00;5.50;;;2.20;;
22774;SDS011;11554;51.106;3.684;2023-08-17T07:25:00;6.80;;;2.40;;
22774;SDS011;11554;51.106;3.684;2023-08-17T07:30:00;6.80;;;2.40;;
22774;SDS011;11554;51.106;3.684;2023-08-17T07:35:00;5.80;;;2.30;;
22774;SDS011;11554;51.106;3.684;2023-08-17T07:40:00;5.80;;;2.30;;
22774;SDS011;11554;51.106;3.684;2023-08-17T07:45:01;7.10;;;2.80;;
22774;SDS011;11554;51.106;3.684;2023-08-17T07:50:00;7.10;;;2.80;;
22774;SDS011;11554;51.106;3.684;2023-08-17T07:55:00;6.70;;;3.00;;
22774;SDS011;11554;51.106;3.684;2023-08-17T08:00:00;6.70;;;3.00;;
22774;SDS011;11554;51.106;3.684;2023-08-17T08:05:00;9.30;;;3.80;;
22774;SDS011;11554;51.106;3.684;2023-08-17T08:10:00;9.30;;;3.80;;
22774;SDS011;11554;51.106;3.684;2023-08-17T08:15:00;8.40;;;3.80;;
22774;SDS011;11554;51.106;3.684;2023-08-17T08:20:00;8.40;;;3.80;;
22774;SDS011;11554;51.106;3.684;2023-08-17T08:25:00;8.50;;;3.40;;
22774;SDS011;11554;51.106;3.684;2023-08-17T08:30:00;8.50;;;3.40;;
22774;SDS011;11554;51.106;3.684;2023-08-17T08:35:00;9.90;;;4.40;;
22774;SDS011;11554;51.106;3.684;2023-08-17T08:40:00;9.90;;;4.40;;
22774;SDS011;11554;51.106;3.684;2023-08-17T08:45:00;16.20;;;5.90;;
22774;SDS011;11554;51.106;3.684;2023-08-17T08:50:01;16.20;;;5.90;;
22774;SDS011;11554;51.106;3.684;2023-08-17T08:55:05;15.60;;;5.00;;
22774;SDS011;11554;51.106;3.684;2023-08-17T09:00:01;15.60;;;5.00;;
22774;SDS011;11554;51.106;3.684;2023-08-17T09:05:01;11.40;;;5.40;;
22774;SDS011;11554;51.106;3.684;2023-08-17T09:10:01;11.40;;;5.40;;
22774;SDS011;11554;51.106;3.684;2023-08-17T09:15:00;9.60;;;4.10;;
22774;SDS011;11554;51.106;3.684;2023-08-17T09:20:00;9.60;;;4.10;;
22774;SDS011;11554;51.106;3.684;2023-08-17T09:25:00;10.80;;;4.40;;
22774;SDS011;11554;51.106;3.684;2023-08-17T09:30:02;10.80;;;4.40;;
22774;SDS011;11554;51.106;3.684;2023-08-17T09:35:00;10.70;;;4.10;;
22774;SDS011;11554;51.106;3.684;2023-08-17T09:40:01;10.70;;;4.10;;
22774;SDS011;11554;51.106;3.684;2023-08-17T09:45:00;10.10;;;5.00;;
22774;SDS011;11554;51.106;3.684;2023-08-17T09:50:00;10.10;;;5.00;;
22774;SDS011;11554;51.106;3.684;2023-08-17T09:55:01;9.80;;;4.10;;
22774;SDS011;11554;51.106;3.684;2023-08-17T10:00:00;9.80;;;4.10;;
22774;SDS011;11554;51.106;3.684;2023-08-17T10:05:01;9.20;;;4.30;;
22774;SDS011;11554;51.106;3.684;2023-08-17T10:10:03;9.20;;;4.30;;
22774;SDS011;11554;51.106;3.684;2023-08-17T10:15:03;11.20;;;5.00;;
22774;SDS011;11554;51.106;3.684;2023-08-17T10:20:00;11.20;;;5.00;;
22774;SDS011;11554;51.106;3.684;2023-08-17T10:25:01;8.80;;;5.30;;
22774;SDS011;11554;51.106;3.684;2023-08-17T10:30:01;8.80;;;5.30;;
22774;SDS011;11554;51.106;3.684;2023-08-17T10:35:01;8.40;;;4.40;;
22774;SDS011;11554;51.106;3.684;2023-08-17T10:40:00;8.40;;;4.40;;
22774;SDS011;11554;51.106;3.684;2023-08-17T10:45:00;8.20;;;5.10;;
22774;SDS011;11554;51.106;3.684;2023-08-17T10:50:04;8.20;;;5.10;;
22774;SDS011;11554;51.106;3.684;2023-08-17T10:55:01;8.50;;;4.70;;
22774;SDS011;11554;51.106;3.684;2023-08-17T11:00:14;8.50;;;4.70;;
22774;SDS011;11554;51.106;3.684;2023-08-17T11:05:00;10.50;;;5.40;;
22774;SDS011;11554;51.106;3.684;2023-08-17T11:10:00;10.50;;;5.40;;
22774;SDS011;11554;51.106;3.684;2023-08-17T11:15:00;12.20;;;5.90;;
22774;SDS011;11554;51.106;3.684;2023-08-17T11:20:00;12.20;;;5.90;;
22774;SDS011;11554;51.106;3.684;2023-08-17T11:25:00;10.10;;;5.70;;
22774;SDS011;11554;51.106;3.684;2023-08-17T11:30:00;10.10;;;5.70;;
22774;SDS011;11554;51.106;3.684;2023-08-17T11:35:00;9.80;;;5.30;;
22774;SDS011;11554;51.106;3.684;2023-08-17T11:40:00;9.80;;;5.30;;
22774;SDS011;11554;51.106;3.684;2023-08-17T11:45:00;14.10;;;6.60;;
22774;SDS011;11554;51.106;3.684;2023-08-17T11:50:00;14.10;;;6.60;;
22774;SDS011;11554;51.106;3.684;2023-08-17T11:55:00;7.50;;;5.00;;
22774;SDS011;11554;51.106;3.684;2023-08-17T12:00:01;7.50;;;5.00;;
22774;SDS011;11554;51.106;3.684;2023-08-17T12:05:03;9.20;;;5.90;;
22774;SDS011;11554;51.106;3.684;2023-08-17T12:10:02;9.20;;;5.90;;
22774;SDS011;11554;51.106;3.684;2023-08-17T12:15:00;10.80;;;6.40;;
22774;SDS011;11554;51.106;3.684;2023-08-17T12:20:00;10.80;;;6.40;;
22774;SDS011;11554;51.106;3.684;2023-08-17T12:25:00;8.80;;;5.60;;
22774;SDS011;11554;51.106;3.684;2023-08-17T12:30:00;8.80;;;5.60;;
22774;SDS011;11554;51.106;3.684;2023-08-17T12:35:00;10.00;;;5.60;;
22774;SDS011;11554;51.106;3.684;2023-08-17T12:40:00;10.00;;;5.60;;
22774;SDS011;11554;51.106;3.684;2023-08-17T12:45:00;9.80;;;6.20;;
22774;SDS011;11554;51.106;3.684;2023-08-17T12:50:00;9.80;;;6.20;;
22774;SDS011;11554;51.106;3.684;2023-08-17T12:55:00;13.40;;;8.50;;
22774;SDS011;11554;51.106;3.684;2023-08-17T13:00:00;13.40;;;8.50;;
22774;SDS011;11554;51.106;3.684;2023-08-17T13:05:00;11.50;;;8.80;;
22774;SDS011;11554;51.106;3.684;2023-08-17T13:10:00;11.50;;;8.80;;
22774;SDS011;11554;51.106;3.684;2023-08-17T13:15:00;14.50;;;9.60;;
22774;SDS011;11554;51.106;3.684;2023-08-17T13:20:00;14.50;;;9.60;;
22774;SDS011;11554;51.106;3.684;2023-08-17T13:25:00;12.40;;;9.00;;
22774;SDS011;11554;51.106;3.684;2023-08-17T13:30:00;12.40;;;9.00;;
22774;SDS011;11554;51.106;3.684;2023-08-17T13:35:01;13.50;;;10.20;;
22774;SDS011;11554;51.106;3.684;2023-08-17T13:40:00;13.50;;;10.20;;
22774;SDS011;11554;51.106;3.684;2023-08-17T13:45:00;13.40;;;10.00;;
22774;SDS011;11554;51.106;3.684;2023-08-17T13:50:00;13.40;;;10.00;;
22774;SDS011;11554;51.106;3.684;2023-08-17T13:55:00;12.40;;;9.50;;
22774;SDS011;11554;51.106;3.684;2023-08-17T14:00:00;12.40;;;9.50;;
22774;SDS011;11554;51.106;3.684;2023-08-17T14:05:00;14.50;;;10.60;;
22774;SDS011;11554;51.106;3.684;2023-08-17T14:10:00;14.50;;;10.60;;
22774;SDS011;11554;51.106;3.684;2023-08-17T14:15:00;13.70;;;11.80;;
22774;SDS011;11554;51.106;3.684;2023-08-17T14:20:00;13.70;;;11.80;;
22774;SDS011;11554;51.106;3.684;2023-08-17T14:25:00;15.80;;;14.20;;
22774;SDS011;11554;51.106;3.684;2023-08-17T14:30:00;15.80;;;14.20;;
22774;SDS011;11554;51.106;3.684;2023-08-17T14:35:00;17.50;;;15.60;;
22774;SDS011;11554;51.106;3.684;2023-08-17T14:40:00;17.50;;;15.60;;
22774;SDS011;11554;51.106;3.684;2023-08-17T14:45:00;19.50;;;15.90;;
22774;SDS011;11554;51.106;3.684;2023-08-17T14:50:00;19.50;;;15.90;;
22774;SDS011;11554;51.106;3.684;2023-08-17T14:55:00;14.90;;;11.70;;
22774;SDS011;11554;51.106;3.684;2023-08-17T15:00:00;14.90;;;11.70;;
22774;SDS011;11554;51.106;3.684;2023-08-17T15:05:00;12.40;;;10.30;;
22774;SDS011;11554;51.106;3.684;2023-08-17T15:10:00;12.40;;;10.30;;
22774;SDS011;11554;51.106;3.684;2023-08-17T15:15:01;18.40;;;13.20;;
22774;SDS011;11554;51.106;3.684;2023-08-17T15:20:00;18.40;;;13.20;;
22774;SDS011;11554;51.106;3.684;2023-08-17T15:25:00;15.50;;;13.50;;
22774;SDS011;11554;51.106;3.684;2023-08-17T15:30:00;15.50;;;13.50;;
22774;SDS011;11554;51.106;3.684;2023-08-17T15:35:00;14.70;;;13.10;;
22774;SDS011;11554;51.106;3.684;2023-08-17T15:40:00;14.70;;;13.10;;
22774;SDS011;11554;51.106;3.684;2023-08-17T15:45:00;14.70;;;13.10;;
22774;SDS011;11554;51.106;3.684;2023-08-17T15:50:00;14.70;;;13.10;;
22774;SDS011;11554;51.106;3.684;2023-08-17T15:55:00;15.30;;;12.90;;
22774;SDS011;11554;51.106;3.684;2023-08-17T16:00:00;15.30;;;12.90;;
22774;SDS011;11554;51.106;3.684;2023-08-17T16:05:00;17.20;;;11.70;;
22774;SDS011;11554;51.106;3.684;2023-08-17T16:10:00;17.20;;;11.70;;
22774;SDS011;11554;51.106;3.684;2023-08-17T16:15:00;14.20;;;11.70;;
22774;SDS011;11554;51.106;3.684;2023-08-17T16:20:00;14.20;;;11.70;;
22774;SDS011;11554;51.106;3.684;2023-08-17T16:25:00;12.50;;;10.70;;
22774;SDS011;11554;51.106;3.684;2023-08-17T16:30:00;12.50;;;10.70;;
22774;SDS011;11554;51.106;3.684;2023-08-17T16:35:00;14.20;;;10.80;;
22774;SDS011;11554;51.106;3.684;2023-08-17T16:40:00;14.20;;;10.80;;
22774;SDS011;11554;51.106;3.684;2023-08-17T16:45:00;15.50;;;11.60;;
22774;SDS011;11554;51.106;3.684;2023-08-17T16:50:00;15.50;;;11.60;;
22774;SDS011;11554;51.106;3.684;2023-08-17T16:55:00;17.60;;;12.90;;
22774;SDS011;11554;51.106;3.684;2023-08-17T17:00:00;17.60;;;12.90;;
22774;SDS011;11554;51.106;3.684;2023-08-17T17:05:00;16.60;;;12.10;;
22774;SDS011;11554;51.106;3.684;2023-08-17T17:10:00;16.60;;;12.10;;
22774;SDS011;11554;51.106;3.684;2023-08-17T17:15:00;15.50;;;11.30;;
22774;SDS011;11554;51.106;3.684;2023-08-17T17:20:00;15.50;;;11.30;;
22774;SDS011;11554;51.106;3.684;2023-08-17T17:25:00;15.30;;;11.20;;
22774;SDS011;11554;51.106;3.684;2023-08-17T17:30:00;15.30;;;11.20;;
22774;SDS011;11554;51.106;3.684;2023-08-17T17:35:00;16.70;;;12.70;;
22774;SDS011;11554;51.106;3.684;2023-08-17T17:40:00;16.70;;;12.70;;
22774;SDS011;11554;51.106;3.684;2023-08-17T17:45:00;16.30;;;12.70;;
22774;SDS011;11554;51.106;3.684;2023-08-17T17:50:00;16.30;;;12.70;;
22774;SDS011;11554;51.106;3.684;2023-08-17T17:55:00;17.70;;;13.50;;
22774;SDS011;11554;51.106;3.684;2023-08-17T18:00:00;17.70;;;13.50;;
22774;SDS011;11554;51.106;3.684;2023-08-17T18:05:00;18.80;;;14.50;;
22774;SDS011;11554;51.106;3.684;2023-08-17T18:10:00;18.80;;;14.50;;
22774;SDS011;11554;51.106;3.684;2023-08-17T18:15:00;21.70;;;17.00;;
22774;SDS011;11554;51.106;3.684;2023-08-17T18:20:00;21.70;;;17.00;;
22774;SDS011;11554;51.106;3.684;2023-08-17T18:25:00;19.10;;;15.90;;
22774;SDS011;11554;51.106;3.684;2023-08-17T18:30:00;19.10;;;15.90;;
22774;SDS011;11554;51.106;3.684;2023-08-17T18:35:00;19.50;;;17.00;;
22774;SDS011;11554;51.106;3.684;2023-08-17T18:40:00;19.50;;;17.00;;
22774;SDS011;11554;51.106;3.684;2023-08-17T18:45:00;17.60;;;15.00;;
22774;SDS011;11554;51.106;3.684;2023-08-17T18:50:00;17.60;;;15.00;;
22774;SDS011;11554;51.106;3.684;2023-08-17T18:55:02;17.30;;;14.90;;
22774;SDS011;11554;51.106;3.684;2023-08-17T19:00:00;17.30;;;14.90;;
22774;SDS011;11554;51.106;3.684;2023-08-17T19:05:00;17.50;;;14.70;;
22774;SDS011;11554;51.106;3.684;2023-08-17T19:10:00;17.50;;;14.70;;
22774;SDS011;11554;51.106;3.684;2023-08-17T19:15:00;15.70;;;13.40;;
22774;SDS011;11554;51.106;3.684;2023-08-17T19:20:00;15.70;;;13.40;;
22774;SDS011;11554;51.106;3.684;2023-08-17T19:25:00;15.80;;;14.00;;
22774;SDS011;11554;51.106;3.684;2023-08-17T19:30:00;15.80;;;14.00;;
22774;SDS011;11554;51.106;3.684;2023-08-17T19:35:00;18.60;;;13.70;;
22774;SDS011;11554;51.106;3.684;2023-08-17T19:40:00;18.60;;;13.70;;
22774;SDS011;11554;51.106;3.684;2023-08-17T19:45:00;18.40;;;15.00;;
22774;SDS011;11554;51.106;3.684;2023-08-17T19:50:00;18.40;;;15.00;;
22774;SDS011;11554;51.106;3.684;2023-08-17T19:55:00;20.80;;;15.30;;
22774;SDS011;11554;51.106;3.684;2023-08-17T20:00:00;20.80;;;15.30;;
22774;SDS011;11554;51.106;3.684;2023-08-17T20:05:00;22.10;;;16.70;;
22774;SDS011;11554;51.106;3.684;2023-08-17T20:10:00;22.10;;;16.70;;
22774;SDS011;11554;51.106;3.684;2023-08-17T20:15:00;20.70;;;15.80;;
22774;SDS011;11554;51.106;3.684;2023-08-17T20:20:00;20.70;;;15.80;;
22774;SDS011;11554;51.106;3.684;2023-08-17T20:25:00;19.40;;;14.30;;
22774;SDS011;11554;51.106;3.684;2023-08-17T20:30:00;19.40;;;14.30;;
22774;SDS011;11554;51.106;3.684;2023-08-17T20:35:00;18.90;;;14.30;;
22774;SDS011;11554;51.106;3.684;2023-08-17T20:40:00;18.90;;;14.30;;
22774;SDS011;11554;51.106;3.684;2023-08-17T20:45:00;19.20;;;13.70;;
22774;SDS011;11554;51.106;3.684;2023-08-17T20:50:00;19.20;;;13.70;;
22774;SDS011;11554;51.106;3.684;2023-08-17T20:55:00;17.70;;;13.40;;
22774;SDS011;11554;51.106;3.684;2023-08-17T21:00:00;17.70;;;13.40;;
22774;SDS011;11554;51.106;3.684;2023-08-17T21:05:00;18.70;;;13.00;;
22774;SDS011;11554;51.106;3.684;2023-08-17T21:10:00;18.70;;;13.00;;
22774;SDS011;11554;51.106;3.684;2023-08-17T21:15:00;17.50;;;13.20;;
22774;SDS011;11554;51.106;3.684;2023-08-17T21:20:00;17.50;;;13.20;;
22774;SDS011;11554;51.106;3.684;2023-08-17T21:25:00;19.40;;;14.60;;
22774;SDS011;11554;51.106;3.684;2023-08-17T21:30:00;19.40;;;14.60;;
22774;SDS011;11554;51.106;3.684;2023-08-17T21:35:00;19.20;;;14.80;;
22774;SDS011;11554;51.106;3.684;2023-08-17T21:40:01;19.20;;;14.80;;
22774;SDS011;11554;51.106;3.684;2023-08-17T21:45:00;21.60;;;16.10;;
22774;SDS011;11554;51.106;3.684;2023-08-17T21:50:00;21.60;;;16.10;;
22774;SDS011;11554;51.106;3.684;2023-08-17T21:55:00;20.10;;;16.80;;
22774;SDS011;11554;51.106;3.684;2023-08-17T22:00:00;20.10;;;16.80;;
22774;SDS011;11554;51.106;3.684;2023-08-17T22:05:00;22.70;;;18.20;;
22774;SDS011;11554;51.106;3.684;2023-08-17T22:10:00;22.70;;;18.20;;
22774;SDS011;11554;51.106;3.684;2023-08-17T22:15:00;21.60;;;18.20;;
22774;SDS011;11554;51.106;3.684;2023-08-17T22:20:00;21.60;;;18.20;;
22774;SDS011;11554;51.106;3.684;2023-08-17T22:25:00;22.30;;;19.00;;
22774;SDS011;11554;51.106;3.684;2023-08-17T22:30:00;22.30;;;19.00;;
22774;SDS011;11554;51.106;3.684;2023-08-17T22:35:00;26.10;;;20.30;;
22774;SDS011;11554;51.106;3.684;2023-08-17T22:40:00;26.10;;;20.30;;
22774;SDS011;11554;51.106;3.684;2023-08-17T22:45:00;24.10;;;20.00;;
22774;SDS011;11554;51.106;3.684;2023-08-17T22:50:00;24.10;;;20.00;;
22774;SDS011;11554;51.106;3.684;2023-08-17T22:55:00;24.20;;;18.50;;
22774;SDS011;11554;51.106;3.684;2023-08-17T23:00:00;24.20;;;18.50;;
22774;SDS011;11554;51.106;3.684;2023-08-17T23:05:00;27.00;;;20.80;;
22774;SDS011;11554;51.106;3.684;2023-08-17T23:10:00;27.00;;;20.80;;
22774;SDS011;11554;51.106;3.684;2023-08-17T23:15:00;25.70;;;20.60;;
22774;SDS011;11554;51.106;3.684;2023-08-17T23:20:00;25.70;;;20.60;;
22774;SDS011;11554;51.106;3.684;2023-08-17T23:25:00;28.80;;;21.70;;
22774;SDS011;11554;51.106;3.684;2023-08-17T23:30:00;28.80;;;21.70;;
22774;SDS011;11554;51.106;3.684;2023-08-17T23:35:00;30.20;;;22.90;;
22774;SDS011;11554;51.106;3.684;2023-08-17T23:40:00;30.20;;;22.90;;
22774;SDS011;11554;51.106;3.684;2023-08-17T23:45:00;33.00;;;23.80;;
22774;SDS011;11554;51.106;3.684;2023-08-17T23:50:00;33.00;;;23.80;;
22774;SDS011;11554;51.106;3.684;2023-08-17T23:55:00;30.00;;;24.60;;
